createdAt,value
2023-10-09T00:00:41.500Z,10.27
2023-10-09T00:05:45.575Z,10.20
2023-10-09T00:10:50.376Z,10.28
2023-10-09T00:15:54.982Z,10.32
2023-10-09T00:21:13.250Z,10.40
2023-10-09T00:26:17.737Z,10.27
2023-10-09T00:31:31.094Z,10.20
2023-10-09T00:36:33.973Z,10.24
2023-10-09T00:41:36.592Z,10.19
2023-10-09T00:46:43.243Z,10.13
2023-10-09T00:51:57.685Z,10.13
2023-10-09T00:57:07.808Z,10.24
2023-10-09T01:02:10.938Z,10.30
2023-10-09T01:07:22.484Z,10.28
2023-10-09T01:12:23.944Z,10.35
2023-10-09T01:17:37.392Z,10.35
2023-10-09T01:22:39.419Z,10.30
2023-10-09T01:27:41.485Z,10.24
2023-10-09T01:32:46.554Z,10.22
2023-10-09T01:37:52.656Z,10.20
2023-10-09T01:42:54.194Z,10.14
2023-10-09T01:47:55.907Z,10.05
2023-10-09T01:52:58.063Z,10.06
2023-10-09T01:58:02.892Z,9.99
2023-10-09T02:03:07.059Z,10.06
2023-10-09T02:08:14.049Z,10.18
2023-10-09T02:13:18.161Z,10.32
2023-10-09T02:18:24.185Z,10.29
2023-10-09T02:23:31.479Z,10.15
2023-10-09T02:28:36.153Z,10.00
2023-10-09T02:33:40.335Z,10.03
2023-10-09T02:38:42.784Z,10.17
2023-10-09T02:43:48.498Z,10.08
2023-10-09T02:48:53.992Z,10.04
2023-10-09T02:54:00.737Z,10.08
2023-10-09T02:59:08.040Z,9.97
2023-10-09T03:04:12.141Z,9.76
2023-10-09T03:09:20.678Z,9.68
2023-10-09T03:14:27.602Z,9.70
2023-10-09T03:19:30.900Z,9.64
2023-10-09T03:24:32.887Z,9.65
2023-10-09T03:29:34.742Z,9.55
2023-10-09T03:34:36.267Z,9.45
2023-10-09T03:39:43.461Z,9.53
2023-10-09T03:44:50.170Z,9.44
2023-10-09T03:49:55.721Z,9.54
2023-10-09T03:54:57.433Z,9.55
2023-10-09T03:59:58.962Z,9.57
2023-10-09T04:05:00.795Z,9.33
2023-10-09T04:10:25.254Z,9.27
2023-10-09T04:15:26.971Z,9.09
2023-10-09T04:20:34.308Z,9.03
2023-10-09T04:25:46.567Z,8.91
2023-10-09T04:30:54.688Z,8.89
2023-10-09T04:36:21.723Z,8.82
2023-10-09T04:41:28.821Z,8.86
2023-10-09T04:46:44.722Z,8.98
2023-10-09T04:52:02.326Z,9.04
2023-10-09T04:57:04.167Z,9.08
2023-10-09T05:02:06.943Z,9.05
2023-10-09T05:07:46.901Z,9.11
2023-10-09T05:12:48.876Z,9.21
2023-10-09T05:17:57.553Z,9.27
2023-10-09T05:22:59.523Z,9.39
2023-10-09T05:28:21.016Z,9.39
2023-10-09T05:33:34.605Z,9.27
2023-10-09T05:38:36.939Z,9.28
2023-10-09T05:43:57.112Z,9.21
2023-10-09T05:49:10.247Z,9.16
2023-10-09T05:54:30.688Z,9.24
2023-10-09T05:59:51.238Z,9.02
2023-10-09T06:04:55.924Z,9.18
2023-10-09T06:09:58.822Z,9.29
2023-10-09T06:15:27.038Z,9.33
2023-10-09T06:21:03.479Z,9.44
2023-10-09T06:26:24.740Z,9.52
2023-10-09T06:31:53.321Z,9.58
2023-10-09T06:36:55.628Z,9.66
2023-10-09T06:42:10.573Z,9.65
2023-10-09T06:47:14.157Z,9.79
2023-10-09T06:52:16.770Z,9.57
2023-10-09T06:57:38.816Z,9.62
2023-10-09T07:02:47.326Z,9.51
2023-10-09T07:07:56.202Z,9.54
2023-10-09T07:12:58.355Z,9.48
2023-10-09T07:18:19.828Z,9.65
2023-10-09T07:23:22.736Z,9.64
2023-10-09T07:28:31.037Z,9.73
2023-10-09T07:33:53.411Z,9.69
2023-10-09T07:38:56.313Z,9.64
2023-10-09T07:43:58.599Z,9.57
2023-10-09T07:49:10.592Z,9.63
2023-10-09T07:54:15.823Z,9.70
2023-10-09T07:59:19.719Z,9.78
2023-10-09T08:04:44.810Z,9.88
2023-10-09T08:09:49.644Z,9.89
2023-10-09T08:14:51.141Z,10.03
2023-10-09T08:19:55.750Z,10.06
2023-10-09T08:24:58.436Z,10.04
2023-10-09T08:30:18.906Z,9.94
2023-10-09T08:35:30.801Z,10.30
2023-10-09T08:40:40.325Z,10.42
2023-10-09T08:45:46.877Z,10.14
2023-10-09T08:50:55.363Z,10.15
2023-10-09T08:55:56.942Z,10.02
2023-10-09T09:00:59.932Z,10.03
2023-10-09T09:06:03.072Z,9.86
2023-10-09T09:11:29.145Z,9.78
2023-10-09T09:16:31.970Z,10.06
2023-10-09T09:21:41.901Z,10.07
2023-10-09T09:26:47.410Z,9.84
2023-10-09T09:32:07.570Z,9.86
2023-10-09T09:37:14.973Z,10.02
2023-10-09T09:42:18.582Z,10.10
2023-10-09T09:47:28.370Z,9.88
2023-10-09T09:52:39.348Z,9.89
2023-10-09T09:57:42.323Z,10.04
2023-10-09T10:02:46.445Z,9.93
2023-10-09T10:07:50.602Z,9.95
2023-10-09T10:13:02.431Z,10.03
2023-10-09T10:18:08.462Z,10.08
2023-10-09T10:23:18.763Z,10.09
2023-10-09T10:28:54.027Z,9.99
2023-10-09T10:33:59.591Z,9.89
2023-10-09T10:39:05.747Z,10.18
2023-10-09T10:44:25.588Z,10.29
2023-10-09T10:49:37.627Z,10.23
2023-10-09T10:54:39.179Z,10.10
2023-10-09T10:59:42.813Z,10.19
2023-10-09T11:04:54.929Z,10.48
2023-10-09T11:10:10.468Z,10.43
2023-10-09T11:15:23.460Z,10.41
2023-10-09T11:20:33.316Z,10.26
2023-10-09T11:25:35.061Z,10.78
2023-10-09T11:30:37.271Z,10.57
2023-10-09T11:35:38.859Z,10.57
2023-10-09T11:41:05.156Z,10.57
2023-10-09T11:46:30.788Z,10.70
2023-10-09T11:51:32.363Z,10.85
2023-10-09T11:56:34.070Z,10.86
2023-10-09T12:01:38.394Z,10.82
2023-10-09T12:06:40.363Z,10.75
2023-10-09T12:11:54.056Z,10.85
2023-10-09T12:17:06.625Z,10.91
2023-10-09T12:22:12.067Z,11.03
2023-10-09T12:27:13.802Z,11.11
2023-10-09T12:32:20.548Z,11.13
2023-10-09T12:37:22.358Z,11.11
2023-10-09T12:42:23.973Z,11.15
2023-10-09T12:47:26.339Z,10.98
2023-10-09T12:52:31.102Z,11.08
2023-10-09T12:57:32.779Z,10.99
2023-10-09T13:02:35.041Z,10.92
2023-10-09T13:07:36.737Z,11.00
2023-10-09T13:12:44.294Z,11.03
2023-10-09T13:17:45.891Z,11.01
2023-10-09T13:22:50.967Z,10.97
2023-10-09T13:27:52.471Z,11.03
2023-10-09T13:32:54.040Z,11.08
2023-10-09T13:37:55.591Z,11.19
2023-10-09T13:42:59.799Z,11.11
2023-10-09T13:48:04.249Z,11.04
2023-10-09T13:53:13.815Z,10.99
2023-10-09T13:58:21.905Z,10.98
2023-10-09T14:03:25.709Z,11.09
2023-10-09T14:08:30.065Z,11.26
2023-10-09T14:13:31.585Z,11.34
2023-10-09T14:18:33.026Z,11.29
2023-10-09T14:23:35.769Z,11.23
2023-10-09T14:28:38.561Z,11.20
2023-10-09T14:33:41.632Z,11.18
2023-10-09T14:38:43.505Z,11.09
2023-10-09T14:43:45.073Z,11.13
2023-10-09T14:48:47.366Z,11.20
2023-10-09T14:53:50.537Z,11.27
2023-10-09T14:58:52.527Z,11.26
2023-10-09T15:03:56.359Z,11.11
2023-10-09T15:09:09.121Z,11.04
2023-10-09T15:14:10.626Z,11.01
2023-10-09T15:19:12.117Z,10.95
2023-10-09T15:24:20.472Z,10.84
2023-10-09T15:29:29.127Z,10.86
2023-10-09T15:34:32.287Z,10.95
2023-10-09T15:39:33.942Z,10.82
2023-10-09T15:44:38.254Z,10.90
2023-10-09T15:49:45.154Z,10.81
2023-10-09T15:54:49.128Z,10.70
2023-10-09T15:59:51.647Z,10.72
2023-10-09T16:04:54.240Z,10.75
2023-10-09T16:09:56.586Z,10.85
2023-10-09T16:14:58.150Z,10.71
2023-10-09T16:20:01.001Z,10.63
2023-10-09T16:25:10.392Z,10.74
2023-10-09T16:30:14.199Z,10.70
2023-10-09T16:35:15.837Z,10.73
2023-10-09T16:40:21.270Z,10.60
2023-10-09T16:45:22.970Z,10.58
2023-10-09T16:50:29.602Z,10.47
2023-10-09T16:55:31.641Z,10.43
2023-10-09T17:00:36.315Z,10.44
2023-10-09T17:05:52.858Z,10.48
2023-10-09T17:10:54.385Z,10.45
2023-10-09T17:15:56.414Z,10.51
2023-10-09T17:21:00.695Z,10.47
2023-10-09T17:26:05.318Z,10.47
2023-10-09T17:31:06.929Z,10.45
2023-10-09T17:36:08.455Z,10.48
2023-10-09T17:41:10.197Z,10.42
2023-10-09T17:46:13.090Z,10.41
2023-10-09T17:51:15.969Z,10.47
2023-10-09T17:56:19.705Z,10.29
2023-10-09T18:01:25.906Z,10.27
2023-10-09T18:06:27.734Z,10.22
2023-10-09T18:11:29.650Z,10.38
2023-10-09T18:16:31.160Z,10.32
2023-10-09T18:21:36.958Z,10.32
2023-10-09T18:26:38.445Z,10.33
2023-10-09T18:31:41.971Z,10.27
2023-10-09T18:36:43.489Z,10.35
2023-10-09T18:41:45.762Z,10.42
2023-10-09T18:46:48.397Z,10.41
2023-10-09T18:51:49.975Z,10.32
2023-10-09T18:56:51.631Z,10.30
2023-10-09T19:01:54.170Z,10.33
2023-10-09T19:06:55.661Z,10.32
2023-10-09T19:11:58.506Z,10.31
2023-10-09T19:17:01.402Z,10.29
2023-10-09T19:22:03.257Z,10.33
2023-10-09T19:27:06.033Z,10.30
2023-10-09T19:32:08.947Z,10.27
2023-10-09T19:37:10.465Z,10.24
2023-10-09T19:42:13.040Z,10.25
2023-10-09T19:47:14.513Z,10.29
2023-10-09T19:52:16.004Z,10.32
2023-10-09T19:57:18.564Z,10.33
2023-10-09T20:02:20.427Z,10.32
2023-10-09T20:07:22.068Z,10.40
2023-10-09T20:12:24.179Z,10.35
2023-10-09T20:17:25.661Z,10.27
2023-10-09T20:22:28.639Z,10.28
2023-10-09T20:27:31.619Z,10.22
2023-10-09T20:32:33.157Z,10.27
2023-10-09T20:37:35.422Z,10.31
2023-10-09T20:42:37.416Z,10.31
2023-10-09T20:47:43.971Z,10.29
2023-10-09T20:52:47.051Z,10.25
2023-10-09T20:57:58.053Z,10.21
2023-10-09T21:03:00.290Z,10.40
2023-10-09T21:08:02.175Z,10.26
2023-10-09T21:13:03.959Z,10.19
2023-10-09T21:18:07.213Z,10.23
2023-10-09T21:23:10.819Z,10.21
2023-10-09T21:28:12.437Z,10.27
2023-10-09T21:33:13.939Z,10.20
2023-10-09T21:38:15.891Z,10.15
2023-10-09T21:43:19.161Z,10.23
2023-10-09T21:48:20.715Z,10.13
2023-10-09T21:53:23.657Z,10.06
2023-10-09T21:58:25.603Z,10.08
2023-10-09T22:03:28.445Z,10.17
2023-10-09T22:08:30.188Z,10.20
2023-10-09T22:13:31.628Z,10.16
2023-10-09T22:18:33.546Z,10.22
2023-10-09T22:23:36.673Z,10.27
2023-10-09T22:28:41.852Z,10.26
2023-10-09T22:33:47.223Z,10.27
2023-10-09T22:38:58.436Z,10.27
2023-10-09T22:44:00.689Z,10.13
2023-10-09T22:49:14.592Z,10.06
2023-10-09T22:54:24.124Z,10.15
2023-10-09T22:59:28.181Z,10.25
2023-10-09T23:04:37.833Z,10.19
2023-10-09T23:09:49.306Z,10.09
2023-10-09T23:14:52.199Z,10.05
2023-10-09T23:19:57.240Z,9.98
2023-10-09T23:25:18.909Z,10.02
2023-10-09T23:30:23.810Z,10.04
2023-10-09T23:35:45.037Z,10.01
2023-10-09T23:40:47.122Z,10.04
2023-10-09T23:45:58.120Z,10.04
2023-10-09T23:51:02.309Z,9.96
2023-10-09T23:56:12.139Z,10.04
